createdAt,value
2022-08-05T00:00:17.664Z,26.76
2022-08-05T00:02:51.057Z,26.76
2022-08-05T00:06:03.051Z,26.72
2022-08-05T00:08:20.016Z,26.69
2022-08-05T00:10:52.923Z,26.71
2022-08-05T00:13:19.840Z,26.69
2022-08-05T00:15:55.149Z,26.60
2022-08-05T00:18:24.789Z,26.49
2022-08-05T00:20:51.368Z,26.44
2022-08-05T00:23:30.783Z,26.42
2022-08-05T00:26:04.795Z,26.40
2022-08-05T00:28:31.504Z,26.42
2022-08-05T00:31:04.284Z,26.42
2022-08-05T00:34:56.407Z,26.45
2022-08-05T00:37:09.055Z,26.39
2022-08-05T00:39:04.725Z,26.39
2022-08-05T00:41:51.663Z,26.37
2022-08-05T00:44:19.242Z,26.32
2022-08-05T00:46:47.365Z,26.32
2022-08-05T00:49:20.489Z,26.29
2022-08-05T00:51:50.270Z,26.28
2022-08-05T00:54:18.089Z,26.26
2022-08-05T00:56:51.549Z,26.25
2022-08-05T00:59:18.406Z,26.21
2022-08-05T01:01:48.755Z,26.17
2022-08-05T01:04:19.903Z,26.15
2022-08-05T01:06:51.730Z,26.10
2022-08-05T01:09:20.113Z,26.08
2022-08-05T01:11:48.884Z,26.08
2022-08-05T01:14:28.744Z,26.07
2022-08-05T01:17:05.277Z,26.07
2022-08-05T01:20:00.913Z,26.02
2022-08-05T01:22:32.111Z,25.99
2022-08-05T01:25:15.673Z,25.90
2022-08-05T01:27:58.468Z,25.88
2022-08-05T01:30:34.323Z,25.84
2022-08-05T01:33:03.887Z,25.75
2022-08-05T01:35:51.030Z,25.73
2022-08-05T01:38:27.609Z,25.68
2022-08-05T01:40:57.848Z,25.62
2022-08-05T01:43:25.010Z,25.53
2022-08-05T01:45:56.559Z,25.53
2022-08-05T01:48:24.987Z,25.45
2022-08-05T01:50:52.323Z,25.40
2022-08-05T01:53:54.575Z,25.38
2022-08-05T01:56:09.327Z,25.29
2022-08-05T01:58:44.620Z,25.29
2022-08-05T02:01:13.423Z,25.26
2022-08-05T02:03:45.201Z,25.15
2022-08-05T02:06:37.910Z,25.14
2022-08-05T02:08:59.380Z,25.04
2022-08-05T02:11:33.284Z,24.97
2022-08-05T02:14:24.946Z,24.89
2022-08-05T02:16:54.059Z,24.89
2022-08-05T02:19:27.553Z,24.78
2022-08-05T02:22:05.534Z,24.79
2022-08-05T02:24:37.779Z,24.75
2022-08-05T02:27:10.367Z,24.81
2022-08-05T02:29:59.233Z,24.86
2022-08-05T02:32:30.835Z,24.88
2022-08-05T02:35:13.613Z,24.87
2022-08-05T02:37:41.930Z,24.86
2022-08-05T02:40:10.141Z,24.74
2022-08-05T02:42:37.775Z,24.76
2022-08-05T02:45:04.954Z,24.74
2022-08-05T02:48:07.357Z,24.59
2022-08-05T02:50:21.930Z,24.50
2022-08-05T02:52:49.834Z,24.36
2022-08-05T02:55:17.615Z,24.30
2022-08-05T02:58:09.165Z,24.30
2022-08-05T03:00:39.515Z,24.12
2022-08-05T03:03:07.728Z,24.04
2022-08-05T03:06:56.882Z,23.93
2022-08-05T03:08:29.745Z,23.85
2022-08-05T03:11:53.287Z,23.77
2022-08-05T03:13:51.731Z,23.74
2022-08-05T03:16:29.425Z,23.69
2022-08-05T03:18:57.976Z,23.67
2022-08-05T03:21:24.407Z,23.65
2022-08-05T03:23:55.565Z,23.56
2022-08-05T03:26:31.322Z,23.61
2022-08-05T03:28:59.107Z,23.66
2022-08-05T03:31:56.533Z,23.56
2022-08-05T03:34:12.527Z,23.52
2022-08-05T03:36:38.998Z,23.50
2022-08-05T03:39:08.015Z,23.39
2022-08-05T03:41:46.776Z,23.27
2022-08-05T03:44:13.561Z,23.25
2022-08-05T03:46:46.536Z,23.16
2022-08-05T03:49:13.037Z,23.10
2022-08-05T03:52:36.872Z,23.01
2022-08-05T03:55:53.362Z,23.02
2022-08-05T03:57:44.372Z,23.05
2022-08-05T04:00:15.509Z,23.06
2022-08-05T04:02:58.135Z,23.05
2022-08-05T04:05:33.905Z,23.06
2022-08-05T04:08:05.828Z,23.02
2022-08-05T04:10:42.913Z,23.07
2022-08-05T04:13:09.443Z,23.02
2022-08-05T04:15:36.750Z,23.09
2022-08-05T04:18:07.060Z,23.09
2022-08-05T04:20:35.776Z,23.03
2022-08-05T04:23:02.206Z,23.04
2022-08-05T04:25:57.460Z,23.02
2022-08-05T04:28:17.220Z,22.98
2022-08-05T04:30:44.223Z,22.96
2022-08-05T04:33:10.697Z,22.97
2022-08-05T04:36:11.358Z,22.90
2022-08-05T04:38:23.620Z,22.89
2022-08-05T04:41:06.589Z,22.84
2022-08-05T04:43:33.905Z,22.83
2022-08-05T04:46:00.466Z,22.66
2022-08-05T04:48:27.881Z,22.71
2022-08-05T04:51:02.829Z,22.79
2022-08-05T04:53:33.315Z,22.84
2022-08-05T04:56:33.365Z,22.87
2022-08-05T04:58:48.244Z,22.88
2022-08-05T05:01:14.761Z,22.86
2022-08-05T05:04:00.528Z,22.79
2022-08-05T05:06:40.441Z,22.74
2022-08-05T05:09:17.429Z,22.71
2022-08-05T05:11:55.643Z,22.69
2022-08-05T05:14:27.819Z,22.65
2022-08-05T05:16:59.647Z,22.62
2022-08-05T05:19:27.259Z,22.63
2022-08-05T05:21:55.586Z,22.65
2022-08-05T05:24:22.192Z,22.69
2022-08-05T05:27:08.619Z,22.73
2022-08-05T05:30:03.628Z,22.72
2022-08-05T05:32:21.471Z,22.70
2022-08-05T05:34:47.896Z,22.72
2022-08-05T05:37:19.017Z,22.72
2022-08-05T05:39:45.533Z,22.71
2022-08-05T05:42:12.082Z,22.69
2022-08-05T05:44:44.372Z,22.68
2022-08-05T05:47:13.314Z,22.64
2022-08-05T05:49:56.449Z,22.58
2022-08-05T05:52:28.453Z,22.60
2022-08-05T05:55:01.828Z,22.63
2022-08-05T05:57:51.892Z,22.72
2022-08-05T06:00:20.903Z,22.80
2022-08-05T06:02:54.297Z,22.87
2022-08-05T06:05:21.311Z,22.93
2022-08-05T06:08:01.182Z,22.99
2022-08-05T06:10:29.462Z,23.03
2022-08-05T06:13:03.823Z,23.10
2022-08-05T06:16:28.554Z,23.15
2022-08-05T06:18:16.674Z,23.24
2022-08-05T06:20:47.774Z,23.31
2022-08-05T06:23:14.433Z,23.38
2022-08-05T06:26:12.309Z,23.43
2022-08-05T06:28:28.616Z,23.51
2022-08-05T06:30:55.178Z,23.56
2022-08-05T06:33:33.389Z,23.62
2022-08-05T06:36:10.084Z,23.73
2022-08-05T06:38:37.222Z,23.84
2022-08-05T06:41:05.206Z,23.95
2022-08-05T06:43:57.956Z,24.04
2022-08-05T06:46:21.076Z,24.15
2022-08-05T06:48:56.840Z,24.18
2022-08-05T06:51:29.827Z,24.17
2022-08-05T06:53:58.767Z,24.19
2022-08-05T06:56:26.303Z,24.18
2022-08-05T06:58:53.332Z,24.19
2022-08-05T07:01:20.991Z,24.19
2022-08-05T07:03:47.741Z,24.19
2022-08-05T07:06:15.274Z,24.17
2022-08-05T07:08:47.150Z,24.17
2022-08-05T07:11:15.373Z,24.16
2022-08-05T07:14:01.362Z,24.15
2022-08-05T07:18:00.996Z,24.11
2022-08-05T07:22:28.215Z,24.07
2022-08-05T07:25:24.078Z,24.05
2022-08-05T07:27:57.305Z,24.04
2022-08-05T07:30:32.088Z,24.04
2022-08-05T07:33:08.897Z,23.98
2022-08-05T07:36:02.605Z,23.99
2022-08-05T07:38:32.421Z,24.01
2022-08-05T07:41:16.861Z,24.03
2022-08-05T07:43:49.390Z,24.08
2022-08-05T07:46:24.446Z,24.07
2022-08-05T07:49:03.350Z,24.06
2022-08-05T07:51:41.049Z,24.03
2022-08-05T07:54:21.984Z,24.02
2022-08-05T07:57:01.507Z,24.04
2022-08-05T07:59:39.770Z,24.08
2022-08-05T08:02:16.063Z,24.11
2022-08-05T08:04:48.592Z,24.17
2022-08-05T08:07:16.273Z,24.24
2022-08-05T08:09:44.965Z,24.32
2022-08-05T08:12:37.115Z,24.37
2022-08-05T08:15:02.567Z,24.47
2022-08-05T08:17:30.839Z,24.54
2022-08-05T08:20:21.925Z,24.60
2022-08-05T08:22:43.724Z,24.62
2022-08-05T08:25:16.463Z,24.63
2022-08-05T08:27:47.973Z,24.60
2022-08-05T08:30:29.936Z,24.63
2022-08-05T08:33:13.963Z,24.78
2022-08-05T08:35:52.691Z,24.84
2022-08-05T08:38:35.512Z,24.79
2022-08-05T08:41:08.608Z,24.82
2022-08-05T08:45:16.942Z,24.83
2022-08-05T08:46:24.035Z,24.88
2022-08-05T08:49:08.003Z,24.90
2022-08-05T08:52:03.909Z,24.94
2022-08-05T08:54:27.676Z,24.96
2022-08-05T08:56:54.236Z,24.99
2022-08-05T08:59:23.220Z,24.98
2022-08-05T09:02:01.164Z,25.13
2022-08-05T09:04:30.528Z,25.21
2022-08-05T09:06:57.676Z,25.25
2022-08-05T09:09:25.083Z,25.36
2022-08-05T09:11:55.813Z,25.34
2022-08-05T09:14:57.070Z,25.30
2022-08-05T09:17:40.873Z,25.29
2022-08-05T09:20:06.137Z,25.32
2022-08-05T09:23:19.948Z,25.37
2022-08-05T09:26:01.504Z,25.40
2022-08-05T09:28:32.044Z,25.40
2022-08-05T09:31:22.320Z,25.46
2022-08-05T09:34:07.480Z,25.57
2022-08-05T09:36:45.683Z,25.68
2022-08-05T09:39:22.230Z,25.83
2022-08-05T09:42:03.760Z,25.98
2022-08-05T09:44:42.442Z,26.11
2022-08-05T09:47:15.640Z,26.22
2022-08-05T09:50:00.381Z,26.27
2022-08-05T09:52:34.943Z,26.32
2022-08-05T09:55:58.580Z,26.33
2022-08-05T09:57:54.733Z,26.36
2022-08-05T10:00:25.856Z,26.40
2022-08-05T10:02:54.624Z,26.45
2022-08-05T10:05:26.727Z,26.49
2022-08-05T10:08:35.288Z,26.55
2022-08-05T10:10:44.046Z,26.60
2022-08-05T10:13:10.593Z,26.76
2022-08-05T10:15:39.155Z,26.77
2022-08-05T10:18:22.777Z,26.89
2022-08-05T10:20:51.851Z,26.97
2022-08-05T10:23:55.972Z,27.05
2022-08-05T10:26:14.329Z,27.13
2022-08-05T10:28:42.980Z,27.27
2022-08-05T10:32:53.914Z,27.34
2022-08-05T10:33:58.607Z,27.37
2022-08-05T10:36:27.089Z,27.41
2022-08-05T10:39:01.037Z,27.46
2022-08-05T10:41:45.200Z,27.52
2022-08-05T10:44:17.179Z,27.55
2022-08-05T10:46:50.886Z,27.60
2022-08-05T10:49:27.217Z,27.69
2022-08-05T10:52:02.360Z,27.76
2022-08-05T10:55:02.938Z,27.80
2022-08-05T10:57:32.113Z,27.70
2022-08-05T11:00:19.240Z,27.78
2022-08-05T11:03:24.575Z,27.82
2022-08-05T11:06:15.196Z,27.88
2022-08-05T11:09:16.597Z,27.99
2022-08-05T11:11:53.299Z,28.02
2022-08-05T11:14:57.628Z,28.13
2022-08-05T11:18:00.521Z,28.10
2022-08-05T11:20:43.727Z,28.17
2022-08-05T11:24:14.740Z,28.20
2022-08-05T11:26:49.615Z,28.21
2022-08-05T11:29:42.167Z,28.29
2022-08-05T11:32:29.118Z,28.33
2022-08-05T11:34:57.363Z,28.45
2022-08-05T11:38:29.001Z,28.44
2022-08-05T11:41:01.368Z,28.30
2022-08-05T11:44:06.692Z,28.21
2022-08-05T11:47:09.925Z,28.18
2022-08-05T11:49:34.293Z,28.17
2022-08-05T11:52:01.910Z,28.08
2022-08-05T11:54:38.328Z,28.07
2022-08-05T11:57:25.635Z,28.03
2022-08-05T11:59:54.153Z,28.04
2022-08-05T12:02:32.038Z,27.93
2022-08-05T12:05:01.326Z,27.69
2022-08-05T12:08:03.638Z,27.52
2022-08-05T12:10:23.049Z,27.39
2022-08-05T12:12:59.891Z,27.29
2022-08-05T12:15:37.939Z,27.20
2022-08-05T12:18:10.794Z,27.18
2022-08-05T12:20:39.315Z,27.18
2022-08-05T12:23:12.488Z,27.20
2022-08-05T12:25:53.561Z,27.28
2022-08-05T12:28:37.077Z,27.39
2022-08-05T12:31:04.939Z,27.41
2022-08-05T12:33:36.499Z,27.55
2022-08-05T12:36:08.146Z,27.61
2022-08-05T12:38:37.236Z,27.64
2022-08-05T12:41:03.824Z,27.76
2022-08-05T12:43:32.018Z,27.89
2022-08-05T12:45:58.855Z,27.94
2022-08-05T12:48:32.338Z,27.98
2022-08-05T12:52:10.414Z,28.23
2022-08-05T12:54:04.470Z,28.26
2022-08-05T12:56:43.237Z,28.40
2022-08-05T12:59:20.768Z,28.46
2022-08-05T13:02:08.178Z,28.48
2022-08-05T13:04:41.856Z,28.52
2022-08-05T13:07:54.749Z,28.45
2022-08-05T13:10:14.522Z,28.32
2022-08-05T13:12:57.548Z,28.24
2022-08-05T13:15:41.680Z,28.08
2022-08-05T13:18:18.907Z,27.69
2022-08-05T13:20:47.478Z,27.62
2022-08-05T13:23:16.319Z,27.53
2022-08-05T13:25:52.837Z,27.45
2022-08-05T13:28:26.580Z,27.14
2022-08-05T13:30:53.290Z,27.15
2022-08-05T13:34:22.108Z,27.02
2022-08-05T13:36:07.118Z,27.11
2022-08-05T13:38:36.194Z,26.96
2022-08-05T13:41:05.932Z,26.77
2022-08-05T13:43:45.235Z,26.62
2022-08-05T13:46:35.862Z,26.40
2022-08-05T13:49:09.865Z,26.15
2022-08-05T13:51:41.276Z,26.22
2022-08-05T13:54:11.866Z,26.22
2022-08-05T13:56:45.217Z,26.25
2022-08-05T13:59:20.454Z,26.22
2022-08-05T14:01:57.489Z,25.93
2022-08-05T14:04:51.731Z,25.65
2022-08-05T14:07:25.873Z,25.52
2022-08-05T14:10:19.286Z,25.20
2022-08-05T14:12:54.805Z,25.13
2022-08-05T14:16:07.675Z,24.92
2022-08-05T14:18:14.604Z,24.72
2022-08-05T14:20:46.935Z,24.50
2022-08-05T14:23:14.774Z,24.28
2022-08-05T14:25:54.302Z,23.94
2022-08-05T14:28:26.887Z,23.62
2022-08-05T14:30:54.376Z,23.32
2022-08-05T14:33:22.711Z,23.31
2022-08-05T14:35:51.771Z,23.15
2022-08-05T14:38:32.739Z,22.85
2022-08-05T14:41:05.763Z,22.62
2022-08-05T14:44:02.530Z,22.60
2022-08-05T14:46:21.704Z,22.58
2022-08-05T14:48:49.235Z,22.58
2022-08-05T14:51:17.650Z,22.39
2022-08-05T14:53:44.908Z,22.47
2022-08-05T14:56:13.432Z,22.52
2022-08-05T14:58:47.566Z,22.40
2022-08-05T15:01:16.172Z,22.37
2022-08-05T15:03:44.104Z,22.29
2022-08-05T15:06:14.917Z,22.24
2022-08-05T15:09:01.541Z,22.13
2022-08-05T15:11:51.788Z,22.10
2022-08-05T15:14:20.190Z,22.03
2022-08-05T15:17:03.941Z,22.05
2022-08-05T15:19:30.911Z,22.12
2022-08-05T15:21:58.025Z,22.16
2022-08-05T15:24:27.306Z,22.28
2022-08-05T15:26:53.779Z,22.23
2022-08-05T15:29:22.527Z,22.30
2022-08-05T15:31:52.851Z,22.31
2022-08-05T15:34:31.866Z,22.35
2022-08-05T15:37:03.430Z,22.31
2022-08-05T15:41:04.132Z,22.38
2022-08-05T15:42:49.972Z,22.45
2022-08-05T15:45:06.057Z,22.39
2022-08-05T15:47:32.837Z,22.37
2022-08-05T15:50:03.351Z,22.27
2022-08-05T15:52:53.303Z,22.29
2022-08-05T15:55:17.815Z,22.29
2022-08-05T15:57:45.955Z,22.25
2022-08-05T16:00:26.153Z,22.25
2022-08-05T16:02:59.422Z,22.15
2022-08-05T16:05:28.267Z,22.14
2022-08-05T16:07:54.978Z,22.15
2022-08-05T16:10:25.520Z,22.04
2022-08-05T16:12:56.157Z,22.13
2022-08-05T16:15:23.053Z,22.18
2022-08-05T16:17:57.866Z,22.24
2022-08-05T16:20:25.173Z,22.26
2022-08-05T16:22:51.642Z,22.28
2022-08-05T16:25:18.226Z,22.25
2022-08-05T16:27:59.764Z,22.23
2022-08-05T16:30:32.168Z,22.24
2022-08-05T16:32:59.727Z,22.31
2022-08-05T16:35:28.701Z,22.36
2022-08-05T16:38:02.533Z,22.43
2022-08-05T16:40:41.381Z,22.49
2022-08-05T16:43:07.928Z,22.50
2022-08-05T16:46:04.819Z,22.53
2022-08-05T16:48:25.787Z,22.53
2022-08-05T16:50:59.530Z,22.55
2022-08-05T16:53:31.900Z,22.58
2022-08-05T16:55:59.336Z,22.45
2022-08-05T16:58:26.461Z,22.36
2022-08-05T17:00:52.997Z,22.35
2022-08-05T17:03:19.989Z,22.28
2022-08-05T17:05:53.359Z,22.38
2022-08-05T17:08:51.807Z,22.43
2022-08-05T17:11:12.585Z,22.57
2022-08-05T17:13:43.616Z,23.76
2022-08-05T17:16:29.869Z,24.95
2022-08-05T17:18:56.913Z,26.25
2022-08-05T17:21:23.806Z,26.02
2022-08-05T17:24:04.855Z,25.28
2022-08-05T17:26:35.363Z,24.84
2022-08-05T17:29:04.208Z,24.55
2022-08-05T17:31:57.047Z,24.27
2022-08-05T17:34:20.744Z,24.00
2022-08-05T17:36:56.722Z,23.78
2022-08-05T17:39:24.380Z,23.77
2022-08-05T17:42:17.860Z,23.62
2022-08-05T17:44:51.032Z,23.50
2022-08-05T17:47:22.021Z,23.34
2022-08-05T17:50:04.036Z,23.24
2022-08-05T17:52:52.679Z,23.21
2022-08-05T17:55:20.818Z,23.17
2022-08-05T17:57:48.687Z,23.15
2022-08-05T18:00:17.225Z,23.17
2022-08-05T18:02:46.675Z,23.14
2022-08-05T18:05:13.687Z,23.14
2022-08-05T18:07:44.412Z,23.02
2022-08-05T18:10:20.570Z,22.99
2022-08-05T18:12:48.714Z,22.97
2022-08-05T18:15:15.169Z,22.91
2022-08-05T18:18:00.668Z,22.88
2022-08-05T18:20:29.145Z,22.86
2022-08-05T18:22:58.660Z,22.81
2022-08-05T18:25:33.067Z,22.83
2022-08-05T18:27:59.814Z,22.81
2022-08-05T18:30:32.223Z,22.75
2022-08-05T18:33:00.895Z,22.59
2022-08-05T18:35:50.036Z,22.56
2022-08-05T18:38:18.902Z,22.56
2022-08-05T18:41:57.288Z,22.54
2022-08-05T18:43:38.328Z,22.49
2022-08-05T18:46:09.947Z,22.50
2022-08-05T18:48:36.708Z,22.45
2022-08-05T18:52:03.069Z,22.45
2022-08-05T18:54:13.361Z,22.37
2022-08-05T18:56:40.350Z,22.32
2022-08-05T18:59:44.228Z,22.30
2022-08-05T19:01:57.972Z,22.26
2022-08-05T19:04:25.543Z,22.25
2022-08-05T19:06:53.778Z,22.22
2022-08-05T19:09:21.177Z,22.16
2022-08-05T19:11:59.533Z,22.16
2022-08-05T19:14:37.855Z,22.14
2022-08-05T19:17:14.295Z,22.13
2022-08-05T19:19:46.330Z,22.08
2022-08-05T19:22:17.046Z,22.03
2022-08-05T19:24:54.617Z,22.00
2022-08-05T19:27:23.446Z,21.95
2022-08-05T19:29:50.098Z,21.93
2022-08-05T19:32:16.551Z,21.93
2022-08-05T19:34:55.104Z,21.93
2022-08-05T19:37:35.135Z,21.90
2022-08-05T19:40:10.795Z,21.90
2022-08-05T19:42:38.896Z,21.89
2022-08-05T19:45:07.150Z,21.88
2022-08-05T19:47:37.205Z,21.85
2022-08-05T19:50:04.861Z,21.81
2022-08-05T19:52:34.102Z,21.78
2022-08-05T19:55:08.805Z,21.75
2022-08-05T19:58:14.518Z,21.72
2022-08-05T20:00:35.618Z,21.69
2022-08-05T20:03:08.594Z,21.68
2022-08-05T20:05:43.403Z,21.66
2022-08-05T20:08:18.018Z,21.64
2022-08-05T20:10:44.509Z,21.59
2022-08-05T20:13:15.926Z,21.57
2022-08-05T20:15:52.389Z,21.53
2022-08-05T20:18:33.721Z,21.50
2022-08-05T20:21:04.434Z,21.43
2022-08-05T20:23:40.686Z,21.40
2022-08-05T20:26:19.899Z,21.33
2022-08-05T20:28:48.530Z,21.32
2022-08-05T20:31:16.553Z,21.31
2022-08-05T20:33:43.670Z,21.30
2022-08-05T20:36:11.408Z,21.30
2022-08-05T20:38:40.915Z,21.29
2022-08-05T20:41:23.939Z,21.26
2022-08-05T20:43:58.611Z,21.23
2022-08-05T20:46:26.979Z,21.22
2022-08-05T20:48:53.446Z,21.19
2022-08-05T20:51:21.258Z,21.15
2022-08-05T20:53:55.100Z,21.11
2022-08-05T20:56:28.685Z,21.07
2022-08-05T20:59:00.007Z,20.91
2022-08-05T21:01:38.597Z,20.87
2022-08-05T21:04:07.170Z,20.79
2022-08-05T21:06:37.032Z,20.75
2022-08-05T21:09:07.438Z,20.68
2022-08-05T21:12:06.884Z,20.64
2022-08-05T21:14:23.492Z,20.53
2022-08-05T21:16:53.177Z,20.33
2022-08-05T21:19:20.115Z,20.39
2022-08-05T21:21:50.795Z,20.39
2022-08-05T21:24:19.491Z,20.34
2022-08-05T21:26:57.935Z,20.32
2022-08-05T21:29:31.304Z,20.18
2022-08-05T21:31:59.051Z,20.13
2022-08-05T21:34:25.502Z,20.12
2022-08-05T21:36:54.742Z,20.04
2022-08-05T21:39:26.660Z,19.96
2022-08-05T21:42:01.870Z,19.99
2022-08-05T21:44:29.525Z,20.01
2022-08-05T21:46:58.341Z,19.99
2022-08-05T21:49:48.128Z,19.90
2022-08-05T21:52:27.749Z,19.85
2022-08-05T21:54:54.987Z,19.80
2022-08-05T21:57:31.724Z,19.77
2022-08-05T22:00:04.971Z,19.70
2022-08-05T22:02:32.190Z,19.65
2022-08-05T22:04:58.806Z,19.52
2022-08-05T22:07:39.921Z,19.48
2022-08-05T22:10:11.883Z,19.34
2022-08-05T22:12:40.223Z,19.26
2022-08-05T22:15:16.592Z,19.21
2022-08-05T22:18:02.612Z,19.17
2022-08-05T22:20:29.064Z,19.13
2022-08-05T22:23:16.910Z,19.13
2022-08-05T22:26:11.206Z,19.10
2022-08-05T22:28:38.021Z,19.07
2022-08-05T22:31:05.771Z,19.00
2022-08-05T22:33:58.373Z,18.99
2022-08-05T22:36:18.914Z,18.98
2022-08-05T22:38:48.029Z,18.91
2022-08-05T22:41:15.430Z,18.90
2022-08-05T22:43:52.950Z,18.89
2022-08-05T22:46:23.218Z,18.82
2022-08-05T22:48:53.284Z,18.77
2022-08-05T22:51:23.220Z,18.74
2022-08-05T22:54:06.535Z,18.72
2022-08-05T22:56:33.718Z,18.74
2022-08-05T22:59:03.202Z,18.74
2022-08-05T23:02:04.825Z,18.75
2022-08-05T23:04:17.745Z,18.73
2022-08-05T23:06:44.183Z,18.72
2022-08-05T23:09:27.697Z,18.73
2022-08-05T23:11:58.344Z,18.70
2022-08-05T23:14:32.057Z,18.62
2022-08-05T23:17:18.686Z,18.62
2022-08-05T23:19:56.356Z,18.58
2022-08-05T23:22:27.487Z,18.51
2022-08-05T23:24:54.870Z,18.45
2022-08-05T23:27:21.383Z,18.45
2022-08-05T23:29:50.653Z,18.40
2022-08-05T23:32:17.236Z,18.34
2022-08-05T23:34:49.508Z,18.29
2022-08-05T23:37:17.628Z,18.27
2022-08-05T23:39:53.298Z,18.27
2022-08-05T23:42:23.574Z,18.28
2022-08-05T23:44:56.009Z,18.26
2022-08-05T23:47:22.517Z,18.23
2022-08-05T23:49:52.104Z,18.23
2022-08-05T23:52:32.615Z,18.20
2022-08-05T23:55:07.131Z,18.22
2022-08-05T23:57:36.204Z,18.22
